Time;durP1;ratioP1;P1;durP2;ratioP2;P2;SDS_P1;SDS_P2;PMS_P1;PMS_P2;Temp;Humidity;BMP_temperature;BMP_pressure;BME280_temperature;BME280_humidity;BME280_pressure;Samples;Min_cycle;Max_cycle;Signal;HPM_P1;HPM_P2
2022/05/26 00:01:19;;;;;;;2.70;0.60;;;;;;;;;;4976057;28;20031;-75
2022/05/26 00:03:46;;;;;;;3.72;0.68;;;;;;;;;;4975796;28;20027;-75
2022/05/26 00:06:13;;;;;;;3.20;0.70;;;;;;;;;;4975845;28;20365;-75
2022/05/26 00:08:40;;;;;;;1.63;0.52;;;;;;;;;;4975355;28;20027;-75
2022/05/26 00:11:08;;;;;;;4.88;0.75;;;;;;;;;;4974020;28;20045;-75
2022/05/26 00:13:35;;;;;;;1.92;0.57;;;;;;;;;;4975624;28;20469;-75
2022/05/26 00:16:02;;;;;;;2.08;0.90;;;;;;;;;;4975654;28;20081;-75
2022/05/26 00:18:28;;;;;;;4.15;0.75;;;;;;;;;;4975669;28;20069;-75
2022/05/26 00:20:54;;;;;;;1.10;0.40;;;;;;;;;;4960217;28;20027;-75
2022/05/26 00:23:21;;;;;;;2.08;0.77;;;;;;;;;;4971354;28;20033;-75
2022/05/26 00:25:47;;;;;;;3.72;0.50;;;;;;;;;;4970942;28;20526;-75
2022/05/26 00:28:14;;;;;;;1.80;0.50;;;;;;;;;;4971023;28;20488;-75
2022/05/26 00:30:40;;;;;;;1.65;0.45;;;;;;;;;;4970883;28;20105;-75
2022/05/26 00:33:07;;;;;;;2.72;0.80;;;;;;;;;;4974037;28;20033;-74
2022/05/26 00:35:39;;;;;;;3.97;0.57;;;;;;;;;;4972493;28;20120;-76
2022/05/26 00:38:07;;;;;;;4.00;0.47;;;;;;;;;;4971025;28;20025;-75
2022/05/26 00:40:33;;;;;;;2.05;0.52;;;;;;;;;;4971038;28;20026;-75
2022/05/26 00:43:00;;;;;;;2.65;0.65;;;;;;;;;;4971058;28;20031;-75
2022/05/26 00:45:33;;;;;;;1.83;0.52;;;;;;;;;;4971178;28;20395;-75
2022/05/26 00:48:00;;;;;;;5.03;0.70;;;;;;;;;;4959633;28;20496;-75
2022/05/26 00:50:28;;;;;;;3.88;0.52;;;;;;;;;;4971568;28;20039;-75
2022/05/26 00:53:05;;;;;;;3.45;0.65;;;;;;;;;;4987581;28;20035;-75
2022/05/26 00:55:34;;;;;;;1.38;0.60;;;;;;;;;;4972465;28;20022;-75
2022/05/26 00:58:03;;;;;;;2.60;0.63;;;;;;;;;;4973365;28;20076;-75
2022/05/26 01:00:32;;;;;;;2.47;0.68;;;;;;;;;;4973735;28;20396;-75
2022/05/26 01:03:04;;;;;;;3.25;0.60;;;;;;;;;;4974764;28;20499;-76
2022/05/26 01:05:54;;;;;;;2.20;0.60;;;;;;;;;;4974790;28;20043;-75
2022/05/26 01:08:25;;;;;;;1.83;0.60;;;;;;;;;;4972374;28;20419;-75
2022/05/26 01:10:53;;;;;;;1.23;0.47;;;;;;;;;;4974478;28;20045;-75
2022/05/26 01:13:20;;;;;;;2.08;0.75;;;;;;;;;;4974414;28;20015;-75
2022/05/26 01:15:49;;;;;;;3.50;0.70;;;;;;;;;;4969379;28;20038;-75
2022/05/26 01:18:20;;;;;;;1.98;0.60;;;;;;;;;;4972033;28;20034;-76
2022/05/26 01:20:50;;;;;;;3.72;0.70;;;;;;;;;;4973051;28;20035;-75
2022/05/26 01:23:16;;;;;;;1.77;0.70;;;;;;;;;;4970652;28;20030;-75
2022/05/26 01:26:01;;;;;;;3.28;0.50;;;;;;;;;;4969985;28;20023;-75
2022/05/26 01:28:46;;;;;;;8.07;0.80;;;;;;;;;;4969909;28;20023;-75
2022/05/26 01:31:21;;;;;;;1.70;0.57;;;;;;;;;;4969648;28;20526;-75
2022/05/26 01:33:53;;;;;;;3.42;0.80;;;;;;;;;;4970224;28;20039;-75
2022/05/26 01:36:34;;;;;;;2.92;0.68;;;;;;;;;;4973855;28;20399;-75
2022/05/26 01:39:13;;;;;;;2.80;0.63;;;;;;;;;;4958924;28;20480;-75
2022/05/26 01:41:48;;;;;;;4.53;0.80;;;;;;;;;;4972024;28;20488;-75
2022/05/26 01:44:22;;;;;;;2.60;0.90;;;;;;;;;;4973420;28;20035;-75
2022/05/26 01:46:50;;;;;;;3.83;0.80;;;;;;;;;;4973661;28;20404;-75
2022/05/26 01:49:19;;;;;;;3.95;0.98;;;;;;;;;;4973209;28;20488;-76
2022/05/26 01:52:00;;;;;;;3.88;0.90;;;;;;;;;;4973785;28;20039;-75
2022/05/26 01:54:45;;;;;;;3.10;0.80;;;;;;;;;;4973780;28;20011;-75
2022/05/26 01:57:20;;;;;;;5.82;0.90;;;;;;;;;;4956532;28;20032;-75
2022/05/26 01:59:49;;;;;;;2.38;0.75;;;;;;;;;;4973843;28;20415;-75
2022/05/26 02:02:19;;;;;;;5.18;0.90;;;;;;;;;;4974243;28;20033;-75
2022/05/26 02:04:51;;;;;;;4.05;0.73;;;;;;;;;;4973187;28;20019;-75
2022/05/26 02:07:17;;;;;;;2.28;0.70;;;;;;;;;;4973654;28;20031;-75
2022/05/26 02:09:45;;;;;;;3.13;0.80;;;;;;;;;;4969143;28;20514;-75
2022/05/26 02:12:15;;;;;;;5.60;0.80;;;;;;;;;;4971528;28;20030;-75
2022/05/26 02:14:56;;;;;;;3.17;0.93;;;;;;;;;;4971934;28;20033;-75
2022/05/26 02:17:33;;;;;;;2.72;0.65;;;;;;;;;;4973820;28;20411;-75
2022/05/26 02:20:11;;;;;;;1.98;0.90;;;;;;;;;;4968045;28;20019;-75
2022/05/26 02:22:37;;;;;;;0.85;0.40;;;;;;;;;;4968900;28;20492;-75
2022/05/26 02:25:06;;;;;;;4.00;0.68;;;;;;;;;;4969173;28;20011;-75
2022/05/26 02:27:34;;;;;;;1.92;0.60;;;;;;;;;;4969059;28;20023;-75
2022/05/26 02:30:01;;;;;;;2.45;0.45;;;;;;;;;;4972736;28;20407;-75
2022/05/26 02:32:32;;;;;;;4.03;0.88;;;;;;;;;;4970144;28;20034;-74
2022/05/26 02:35:00;;;;;;;3.20;0.80;;;;;;;;;;4969096;28;20030;-75
2022/05/26 02:37:27;;;;;;;4.18;0.80;;;;;;;;;;4968596;28;20019;-75
2022/05/26 02:39:54;;;;;;;5.03;0.90;;;;;;;;;;4968560;28;20034;-75
2022/05/26 02:42:21;;;;;;;3.75;0.82;;;;;;;;;;4970192;28;20439;-75
2022/05/26 02:44:47;;;;;;;4.45;1.15;;;;;;;;;;4971796;28;20518;-75
2022/05/26 02:47:37;;;;;;;3.50;0.65;;;;;;;;;;4968619;28;20047;-76
2022/05/26 02:50:13;;;;;;;2.28;1.00;;;;;;;;;;4968614;28;20539;-75
2022/05/26 02:52:42;;;;;;;4.15;0.70;;;;;;;;;;4968460;28;20514;-75
2022/05/26 02:55:14;;;;;;;3.03;0.98;;;;;;;;;;4972689;28;20031;-75
2022/05/26 02:57:57;;;;;;;3.03;0.80;;;;;;;;;;4971057;28;20027;-76
2022/05/26 03:00:28;;;;;;;4.55;0.80;;;;;;;;;;4972523;28;20118;-75
2022/05/26 03:03:10;;;;;;;2.57;0.60;;;;;;;;;;4972687;28;20112;-75
2022/05/26 03:05:39;;;;;;;7.70;0.75;;;;;;;;;;4970300;28;20023;-75
2022/05/26 03:08:07;;;;;;;5.20;0.90;;;;;;;;;;4968839;28;20109;-75
2022/05/26 03:10:34;;;;;;;4.22;0.80;;;;;;;;;;4968128;28;20030;-75
2022/05/26 03:13:00;;;;;;;2.50;0.75;;;;;;;;;;4968472;28;20029;-75
2022/05/26 03:15:27;;;;;;;3.83;0.60;;;;;;;;;;4968596;28;20029;-75
2022/05/26 03:17:54;;;;;;;3.65;1.23;;;;;;;;;;4972156;28;20102;-76
2022/05/26 03:20:20;;;;;;;5.97;1.25;;;;;;;;;;4968780;28;20057;-75
2022/05/26 03:22:46;;;;;;;2.50;0.70;;;;;;;;;;4968081;28;20496;-75
2022/05/26 03:25:13;;;;;;;0.70;0.50;;;;;;;;;;4971467;28;20031;-75
2022/05/26 03:27:39;;;;;;;3.15;0.70;;;;;;;;;;4972062;28;20039;-75
2022/05/26 03:30:06;;;;;;;1.15;0.50;;;;;;;;;;4975344;28;20054;-75
2022/05/26 03:32:32;;;;;;;2.80;0.85;;;;;;;;;;4972853;28;20031;-75
2022/05/26 03:43:15;;;;;;;1.00;0.80;;;;;;;;;;4976007;28;20455;-75
2022/05/26 03:45:42;;;;;;;2.08;0.57;;;;;;;;;;4975819;28;20023;-75
2022/05/26 03:48:09;;;;;;;2.40;0.90;;;;;;;;;;4975947;28;20035;-75
2022/05/26 03:50:36;;;;;;;3.00;0.68;;;;;;;;;;4976228;28;20027;-74
2022/05/26 03:53:02;;;;;;;3.00;0.80;;;;;;;;;;4976558;28;20031;-75
2022/05/26 03:55:29;;;;;;;2.67;0.85;;;;;;;;;;4975867;28;20031;-75
2022/05/26 03:57:57;;;;;;;3.67;0.70;;;;;;;;;;4970333;28;20026;-75
2022/05/26 04:00:24;;;;;;;3.17;0.70;;;;;;;;;;4971979;28;20405;-75
2022/05/26 04:02:50;;;;;;;3.70;0.75;;;;;;;;;;4975244;28;20048;-75
2022/05/26 04:05:18;;;;;;;3.03;0.90;;;;;;;;;;4972132;28;20030;-75
2022/05/26 04:07:44;;;;;;;3.05;0.73;;;;;;;;;;4971351;28;20027;-75
2022/05/26 04:10:12;;;;;;;4.93;1.10;;;;;;;;;;4971329;28;20518;-74
2022/05/26 04:12:39;;;;;;;2.25;0.63;;;;;;;;;;4975539;28;20023;-75
2022/05/26 04:15:06;;;;;;;2.15;0.65;;;;;;;;;;4975338;28;20500;-75
2022/05/26 04:17:33;;;;;;;3.63;0.82;;;;;;;;;;4975499;28;20034;-75
2022/05/26 04:19:59;;;;;;;3.70;0.90;;;;;;;;;;4970546;28;20517;-75
2022/05/26 04:22:26;;;;;;;2.17;0.80;;;;;;;;;;4958047;28;20027;-75
2022/05/26 04:24:56;;;;;;;2.03;0.63;;;;;;;;;;4975363;28;20472;-75
2022/05/26 04:27:23;;;;;;;1.60;0.60;;;;;;;;;;4975411;28;20488;-75
2022/05/26 04:29:49;;;;;;;2.28;0.88;;;;;;;;;;4974749;28;20031;-75
2022/05/26 04:32:16;;;;;;;1.98;0.90;;;;;;;;;;4975765;28;20033;-75
2022/05/26 04:34:45;;;;;;;3.00;0.85;;;;;;;;;;4974459;28;20491;-75
2022/05/26 04:37:12;;;;;;;4.57;0.80;;;;;;;;;;4969045;28;20391;-75
2022/05/26 04:39:38;;;;;;;1.48;0.70;;;;;;;;;;4970813;28;20408;-75
2022/05/26 04:42:05;;;;;;;2.20;0.70;;;;;;;;;;4974298;28;20023;-75
2022/05/26 04:44:32;;;;;;;1.38;0.65;;;;;;;;;;4970504;28;20023;-75
2022/05/26 04:46:59;;;;;;;1.17;0.50;;;;;;;;;;4971186;28;20100;-75
2022/05/26 04:49:26;;;;;;;4.45;0.93;;;;;;;;;;4970575;28;20558;-75
2022/05/26 04:51:53;;;;;;;2.50;0.90;;;;;;;;;;4970778;28;20041;-75
2022/05/26 04:54:20;;;;;;;3.35;0.80;;;;;;;;;;4974933;28;20023;-75
2022/05/26 04:56:46;;;;;;;4.65;0.70;;;;;;;;;;4974744;28;20037;-75
2022/05/26 04:59:12;;;;;;;2.78;0.65;;;;;;;;;;4974754;28;20554;-75
2022/05/26 05:01:39;;;;;;;4.25;1.25;;;;;;;;;;4974661;28;20399;-76
2022/05/26 05:04:05;;;;;;;2.50;0.80;;;;;;;;;;4974700;28;20029;-75
2022/05/26 05:06:32;;;;;;;3.70;0.90;;;;;;;;;;4974584;28;20033;-75
2022/05/26 05:08:58;;;;;;;1.80;0.80;;;;;;;;;;4974794;28;20035;-75
2022/05/26 05:11:24;;;;;;;5.22;1.10;;;;;;;;;;4975397;28;20065;-75
2022/05/26 05:13:51;;;;;;;2.30;0.60;;;;;;;;;;4974372;28;20058;-75
2022/05/26 05:16:21;;;;;;;2.05;0.75;;;;;;;;;;4974358;28;20023;-75
2022/05/26 05:18:50;;;;;;;4.47;0.82;;;;;;;;;;4974307;28;20383;-75
2022/05/26 05:21:22;;;;;;;3.17;0.85;;;;;;;;;;4974432;28;20035;-75
2022/05/26 05:23:51;;;;;;;2.17;0.75;;;;;;;;;;4973082;28;20784;-75
2022/05/26 05:26:19;;;;;;;2.60;1.00;;;;;;;;;;4975107;28;20029;-75
2022/05/26 05:28:54;;;;;;;0.60;0.60;;;;;;;;;;4973824;28;20019;-75
2022/05/26 05:31:25;;;;;;;5.25;1.00;;;;;;;;;;4974086;28;20027;-75
2022/05/26 05:33:58;;;;;;;5.25;1.05;;;;;;;;;;4974063;28;20019;-75
2022/05/26 05:36:25;;;;;;;2.83;0.93;;;;;;;;;;4974227;28;20019;-75
2022/05/26 05:38:52;;;;;;;1.23;0.60;;;;;;;;;;4974362;28;20030;-75
2022/05/26 05:41:20;;;;;;;3.97;0.80;;;;;;;;;;4974011;28;20488;-75
2022/05/26 05:43:47;;;;;;;0.63;0.50;;;;;;;;;;4973819;28;20026;-75
2022/05/26 05:46:19;;;;;;;2.03;0.85;;;;;;;;;;4973453;28;20023;-75
2022/05/26 05:48:46;;;;;;;2.95;1.08;;;;;;;;;;4973717;28;20031;-75
2022/05/26 05:51:13;;;;;;;5.38;1.05;;;;;;;;;;4974103;28;20021;-75
2022/05/26 05:53:39;;;;;;;7.25;0.90;;;;;;;;;;4973836;28;20060;-75
2022/05/26 05:56:06;;;;;;;2.60;0.75;;;;;;;;;;4973775;28;20034;-76
2022/05/26 05:58:32;;;;;;;2.50;0.70;;;;;;;;;;4973536;28;20096;-75
2022/05/26 06:00:59;;;;;;;1.83;0.63;;;;;;;;;;4971958;28;20047;-75
2022/05/26 06:03:31;;;;;;;1.98;0.77;;;;;;;;;;4973804;28;20015;-75
2022/05/26 06:05:59;;;;;;;2.17;0.75;;;;;;;;;;4958279;28;20521;-75
2022/05/26 06:08:25;;;;;;;5.28;0.88;;;;;;;;;;4970401;28;20023;-75
2022/05/26 06:10:52;;;;;;;2.30;0.70;;;;;;;;;;4973318;28;20027;-75
2022/05/26 06:13:18;;;;;;;3.40;0.80;;;;;;;;;;4973390;28;20022;-75
2022/05/26 06:15:47;;;;;;;2.85;0.75;;;;;;;;;;4973408;28;20034;-75
2022/05/26 06:18:16;;;;;;;1.92;0.80;;;;;;;;;;4973523;28;20022;-75
2022/05/26 06:20:42;;;;;;;4.50;0.77;;;;;;;;;;4973211;28;20492;-75
2022/05/26 06:23:09;;;;;;;1.73;0.80;;;;;;;;;;4971536;28;20418;-75
2022/05/26 06:25:35;;;;;;;5.45;0.80;;;;;;;;;;4973004;28;20033;-75
2022/05/26 06:30:47;;;;;;;2.85;0.60;;;;;;;;;;4988022;28;20039;-75
2022/05/26 06:38:44;;;;;;;1.63;0.70;;;;;;;;;;4971444;28;20027;-75
2022/05/26 06:43:58;;;;;;;2.75;0.73;;;;;;;;;;4973228;28;20026;-76
2022/05/26 06:46:25;;;;;;;4.85;0.80;;;;;;;;;;4972657;28;20051;-75
2022/05/26 06:48:51;;;;;;;1.75;0.70;;;;;;;;;;4972812;28;20015;-75
2022/05/26 06:51:17;;;;;;;1.80;0.70;;;;;;;;;;4973024;28;20025;-75
2022/05/26 06:53:44;;;;;;;2.63;0.70;;;;;;;;;;4972692;28;20037;-76
2022/05/26 06:56:10;;;;;;;3.22;0.80;;;;;;;;;;4973312;28;20035;-75
2022/05/26 06:58:37;;;;;;;6.07;0.90;;;;;;;;;;4972185;28;20118;-75
2022/05/26 07:01:03;;;;;;;2.95;0.63;;;;;;;;;;4972385;28;20408;-75
2022/05/26 07:03:29;;;;;;;2.17;1.00;;;;;;;;;;4972737;28;20030;-75
2022/05/26 07:05:56;;;;;;;4.30;0.80;;;;;;;;;;4957247;28;20025;-75
2022/05/26 07:08:22;;;;;;;4.75;0.90;;;;;;;;;;4972640;28;20027;-75
2022/05/26 07:10:50;;;;;;;4.10;0.95;;;;;;;;;;4972636;28;20031;-75
2022/05/26 07:13:17;;;;;;;4.63;0.80;;;;;;;;;;4972430;28;20018;-75
2022/05/26 07:15:43;;;;;;;4.72;0.93;;;;;;;;;;4972432;28;20088;-76
2022/05/26 07:18:10;;;;;;;2.85;0.70;;;;;;;;;;4972659;28;20383;-75
2022/05/26 07:20:37;;;;;;;3.00;0.90;;;;;;;;;;4972856;28;20570;-76
2022/05/26 07:23:04;;;;;;;3.85;0.90;;;;;;;;;;4972919;28;20035;-74
2022/05/26 07:25:31;;;;;;;3.08;0.70;;;;;;;;;;4972852;28;20029;-75
2022/05/26 07:27:58;;;;;;;2.72;0.70;;;;;;;;;;4972308;28;20025;-76
2022/05/26 07:30:24;;;;;;;2.90;0.90;;;;;;;;;;4972610;28;20026;-76
2022/05/26 07:32:50;;;;;;;5.45;0.70;;;;;;;;;;4972458;28;20054;-75
2022/05/26 07:35:17;;;;;;;4.45;0.73;;;;;;;;;;4972942;28;20488;-75
2022/05/26 07:43:15;;;;;;;2.45;0.60;;;;;;;;;;4972248;28;20023;-75
2022/05/26 07:45:41;;;;;;;3.45;0.70;;;;;;;;;;4972335;28;20030;-76
2022/05/26 07:48:08;;;;;;;4.25;0.85;;;;;;;;;;4972195;28;20038;-76
2022/05/26 07:50:34;;;;;;;2.70;0.88;;;;;;;;;;4972420;28;20500;-76
2022/05/26 07:53:01;;;;;;;1.92;0.80;;;;;;;;;;4972368;28;20037;-75
2022/05/26 07:55:27;;;;;;;2.25;0.82;;;;;;;;;;4972253;28;20023;-76
2022/05/26 07:57:53;;;;;;;1.98;0.77;;;;;;;;;;4972099;28;20403;-76
2022/05/26 08:00:20;;;;;;;4.40;0.70;;;;;;;;;;4972188;28;20039;-76
2022/05/26 08:02:46;;;;;;;1.55;0.80;;;;;;;;;;4972241;28;20053;-76
2022/05/26 08:05:13;;;;;;;2.88;0.80;;;;;;;;;;4972594;28;20027;-76
2022/05/26 08:07:41;;;;;;;3.85;0.90;;;;;;;;;;4971757;28;20039;-76
2022/05/26 08:10:07;;;;;;;2.78;0.63;;;;;;;;;;4973575;28;20089;-75
2022/05/26 08:12:34;;;;;;;3.15;0.80;;;;;;;;;;4975579;28;20050;-76
2022/05/26 08:15:00;;;;;;;2.72;0.90;;;;;;;;;;4975723;28;20044;-76
2022/05/26 08:17:26;;;;;;;4.05;0.82;;;;;;;;;;4976157;28;20403;-75
2022/05/26 08:19:53;;;;;;;3.20;1.08;;;;;;;;;;4971231;28;20388;-76
2022/05/26 08:22:19;;;;;;;1.98;0.80;;;;;;;;;;4970921;28;20029;-76
2022/05/26 08:24:52;;;;;;;1.30;0.63;;;;;;;;;;4971121;28;20045;-76
2022/05/26 08:27:18;;;;;;;2.88;0.95;;;;;;;;;;4972697;28;20034;-76
2022/05/26 08:29:45;;;;;;;1.33;0.75;;;;;;;;;;4974038;28;20022;-76
2022/05/26 08:32:11;;;;;;;2.75;0.80;;;;;;;;;;4971511;28;20056;-75
2022/05/26 08:34:37;;;;;;;3.83;0.75;;;;;;;;;;4971206;28;20037;-76
2022/05/26 08:37:04;;;;;;;3.45;0.82;;;;;;;;;;4972240;28;20407;-76
2022/05/26 08:39:33;;;;;;;3.22;0.80;;;;;;;;;;4975231;28;20027;-76
2022/05/26 08:42:01;;;;;;;3.03;0.80;;;;;;;;;;4975241;28;20027;-76
2022/05/26 08:44:30;;;;;;;2.42;1.00;;;;;;;;;;4975873;28;20049;-73
2022/05/26 08:47:01;;;;;;;2.45;0.80;;;;;;;;;;4975397;28;20404;-73
2022/05/26 08:49:46;;;;;;;2.58;0.85;;;;;;;;;;4975270;28;20026;-76
2022/05/26 08:52:14;;;;;;;3.10;0.85;;;;;;;;;;4975206;28;20035;-76
2022/05/26 08:54:53;;;;;;;4.70;0.98;;;;;;;;;;4974896;28;20484;-76
2022/05/26 08:57:23;;;;;;;2.88;0.80;;;;;;;;;;4974788;28;20029;-73
2022/05/26 08:59:49;;;;;;;3.38;0.90;;;;;;;;;;4974737;28;20023;-73
2022/05/26 09:02:18;;;;;;;2.30;0.60;;;;;;;;;;4975482;28;20033;-72
2022/05/26 09:04:45;;;;;;;2.83;0.80;;;;;;;;;;4974667;28;20035;-72
2022/05/26 09:12:57;;;;;;;1.83;0.88;;;;;;;;;;4974511;28;20022;-73
2022/05/26 09:15:24;;;;;;;3.78;1.10;;;;;;;;;;4982247;28;20023;-73
2022/05/26 09:17:50;;;;;;;2.85;1.10;;;;;;;;;;4974014;28;20041;-73
2022/05/26 09:20:38;;;;;;;1.60;0.75;;;;;;;;;;4970440;28;20085;-73
2022/05/26 09:23:13;;;;;;;3.67;0.80;;;;;;;;;;4969746;28;20030;-73
2022/05/26 09:25:39;;;;;;;2.42;1.05;;;;;;;;;;4974305;28;20393;-76
2022/05/26 09:28:08;;;;;;;2.90;1.05;;;;;;;;;;4973723;28;20022;-75
2022/05/26 09:30:35;;;;;;;5.18;1.00;;;;;;;;;;4969906;28;20031;-76
2022/05/26 09:33:02;;;;;;;3.90;0.93;;;;;;;;;;4974029;28;20027;-76
2022/05/26 09:35:34;;;;;;;1.85;0.93;;;;;;;;;;4970805;28;20039;-73
2022/05/26 09:38:03;;;;;;;3.28;1.13;;;;;;;;;;4974278;28;20495;-72
2022/05/26 09:40:31;;;;;;;3.97;0.90;;;;;;;;;;4974268;28;20061;-72
2022/05/26 09:43:02;;;;;;;3.45;0.90;;;;;;;;;;4973903;28;20399;-72
2022/05/26 09:45:33;;;;;;;3.38;1.08;;;;;;;;;;4974191;28;20011;-72
2022/05/26 09:48:00;;;;;;;4.43;1.02;;;;;;;;;;4958372;28;20049;-76
2022/05/26 09:50:48;;;;;;;2.00;0.88;;;;;;;;;;4970772;28;20043;-76
2022/05/26 09:53:26;;;;;;;2.03;0.82;;;;;;;;;;4973723;28;20057;-76
2022/05/26 09:55:55;;;;;;;1.60;0.80;;;;;;;;;;4974002;28;20023;-76
2022/05/26 09:58:30;;;;;;;1.70;0.88;;;;;;;;;;4973747;28;20399;-76
2022/05/26 10:01:01;;;;;;;3.90;1.00;;;;;;;;;;4973761;28;20015;-73
2022/05/26 10:03:33;;;;;;;7.28;1.05;;;;;;;;;;4973417;28;20476;-72
2022/05/26 10:06:15;;;;;;;3.60;1.10;;;;;;;;;;4958489;28;20029;-73
2022/05/26 10:09:02;;;;;;;1.35;0.80;;;;;;;;;;4971870;28;20042;-73
2022/05/26 10:11:28;;;;;;;2.17;0.95;;;;;;;;;;4970380;28;20518;-73
2022/05/26 10:13:54;;;;;;;3.95;1.20;;;;;;;;;;4969309;28;20488;-73
2022/05/26 10:16:21;;;;;;;3.85;1.08;;;;;;;;;;4969580;28;20023;-73
2022/05/26 10:18:56;;;;;;;2.38;1.13;;;;;;;;;;4968744;28;20024;-72
2022/05/26 10:21:31;;;;;;;3.42;0.90;;;;;;;;;;4970275;28;20030;-73
2022/05/26 10:24:13;;;;;;;2.40;1.00;;;;;;;;;;4956937;28;20476;-72
2022/05/26 10:26:46;;;;;;;2.20;1.00;;;;;;;;;;4971170;28;20030;-73
2022/05/26 10:29:19;;;;;;;2.53;1.10;;;;;;;;;;4972301;28;20026;-73
2022/05/26 10:32:04;;;;;;;2.67;1.30;;;;;;;;;;4972955;28;20038;-73
2022/05/26 10:34:49;;;;;;;3.40;0.80;;;;;;;;;;4973334;28;20027;-73
2022/05/26 10:37:15;;;;;;;3.00;0.88;;;;;;;;;;4972866;28;20021;-73
2022/05/26 10:39:53;;;;;;;4.30;1.00;;;;;;;;;;4973002;28;20385;-73
2022/05/26 10:42:23;;;;;;;0.70;0.70;;;;;;;;;;4973137;28;20560;-72
2022/05/26 10:45:10;;;;;;;3.90;1.50;;;;;;;;;;4972968;28;20035;-72
2022/05/26 10:47:42;;;;;;;1.70;0.85;;;;;;;;;;4968000;28;20049;-72
2022/05/26 10:50:27;;;;;;;1.63;1.02;;;;;;;;;;4958094;28;20053;-73
2022/05/26 10:53:16;;;;;;;1.45;0.73;;;;;;;;;;4970706;28;20041;-73
2022/05/26 10:55:57;;;;;;;3.50;0.90;;;;;;;;;;4912867;29;20409;-72
2022/05/26 10:58:26;;;;;;;4.47;0.70;;;;;;;;;;4913115;29;20032;-73
2022/05/26 11:00:56;;;;;;;3.00;0.70;;;;;;;;;;4912733;29;20513;-72
2022/05/26 11:03:29;;;;;;;1.63;0.90;;;;;;;;;;4913551;29;20028;-73
2022/05/26 11:06:01;;;;;;;1.10;0.70;;;;;;;;;;4912983;29;20032;-73
2022/05/26 11:08:31;;;;;;;1.58;0.77;;;;;;;;;;4910185;29;20036;-73
2022/05/26 11:11:01;;;;;;;6.32;0.98;;;;;;;;;;4913418;29;20442;-73
2022/05/26 11:13:27;;;;;;;;;;;;;;;;;;4913794;29;20043;-73
2022/05/26 11:18:51;;;;;;;2.65;0.90;;;;;;;;;;4912826;29;20054;-73
2022/05/26 11:21:19;;;;;;;1.88;0.98;;;;;;;;;;4897437;29;20024;-72
2022/05/26 11:23:46;;;;;;;2.75;0.90;;;;;;;;;;4912816;29;20036;-73
2022/05/26 11:26:25;;;;;;;4.93;1.13;;;;;;;;;;4909155;29;20048;-73
2022/05/26 11:28:51;;;;;;;;;;;;;;;;;;4909317;29;20028;-73
2022/05/26 11:37:16;;;;;;;2.53;1.10;;;;;;;;;;4968035;28;20090;-73
2022/05/26 11:39:44;;;;;;;2.47;1.10;;;;;;;;;;4967965;28;20431;-73
2022/05/26 11:42:13;;;;;;;5.28;1.02;;;;;;;;;;4970899;28;20039;-73
2022/05/26 11:44:40;;;;;;;2.30;0.80;;;;;;;;;;4970684;28;20219;-73
2022/05/26 11:47:14;;;;;;;1.88;1.00;;;;;;;;;;4972551;28;20049;-72
2022/05/26 11:49:43;;;;;;;1.52;0.93;;;;;;;;;;4972139;28;20041;-73
2022/05/26 11:52:29;;;;;;;2.75;1.15;;;;;;;;;;4973868;28;20041;-73
2022/05/26 11:54:57;;;;;;;3.67;0.77;;;;;;;;;;4974002;28;20034;-73
2022/05/26 11:57:36;;;;;;;1.85;0.82;;;;;;;;;;4970544;28;20389;-74
2022/05/26 12:00:22;;;;;;;1.45;1.15;;;;;;;;;;4973072;28;20046;-73
2022/05/26 12:02:53;;;;;;;2.25;1.20;;;;;;;;;;4972058;28;20026;-75
2022/05/26 12:05:31;;;;;;;3.97;0.85;;;;;;;;;;4974122;28;20027;-73
2022/05/26 12:07:59;;;;;;;3.00;0.80;;;;;;;;;;4970172;28;20045;-76
2022/05/26 12:10:28;;;;;;;2.60;1.00;;;;;;;;;;4973607;28;20431;-75
2022/05/26 12:13:13;;;;;;;2.03;0.80;;;;;;;;;;4969365;28;20031;-75
2022/05/26 12:15:59;;;;;;;2.85;0.73;;;;;;;;;;4973954;28;20031;-75
2022/05/26 12:18:36;;;;;;;2.42;0.88;;;;;;;;;;4969805;28;20049;-75
2022/05/26 12:21:16;;;;;;;1.13;0.75;;;;;;;;;;4958956;28;20561;-75
2022/05/26 12:23:43;;;;;;;;;;;;;;;;;;4973917;28;20058;-76
2022/05/26 12:26:28;;;;;;;3.75;0.80;;;;;;;;;;4967856;28;19910;-75
2022/05/26 12:29:15;;;;;;;2.75;1.10;;;;;;;;;;4973160;28;20508;-76
2022/05/26 12:32:01;;;;;;;3.28;0.95;;;;;;;;;;4903546;29;20055;-75
2022/05/26 12:34:29;;;;;;;2.67;0.90;;;;;;;;;;4914318;29;20036;-75
2022/05/26 12:36:57;;;;;;;1.95;0.75;;;;;;;;;;4914571;29;20050;-75
2022/05/26 12:39:52;;;;;;;1.48;0.95;;;;;;;;;;4914390;29;20408;-75
2022/05/26 12:42:27;;;;;;;1.88;0.90;;;;;;;;;;4892883;29;20047;-76
2022/05/26 12:45:03;;;;;;;2.97;0.95;;;;;;;;;;4914280;29;20449;-75
2022/05/26 12:47:38;;;;;;;2.38;0.85;;;;;;;;;;4912392;29;20226;-75
2022/05/26 12:50:06;;;;;;;5.18;0.88;;;;;;;;;;4915445;29;20060;-75
2022/05/26 12:52:35;;;;;;;2.60;0.80;;;;;;;;;;4914155;29;20032;-76
2022/05/26 12:55:20;;;;;;;4.18;0.90;;;;;;;;;;4914119;29;20036;-75
2022/05/26 12:57:50;;;;;;;2.83;1.10;;;;;;;;;;4912793;29;20136;-76
2022/05/26 13:00:17;;;;;;;;;;;;;;;;;;4914476;29;20043;-76
2022/05/26 13:02:44;;;;;;;0.95;0.70;;;;;;;;;;4914366;29;19907;-75
2022/05/26 13:05:11;;;;;;;3.70;0.70;;;;;;;;;;4915795;29;20036;-75
2022/05/26 13:07:38;;;;;;;4.70;1.20;;;;;;;;;;4915153;28;20060;-75
2022/05/26 13:10:04;;;;;;;2.33;0.82;;;;;;;;;;4972222;28;20480;-76
2022/05/26 13:12:31;;;;;;;3.20;0.90;;;;;;;;;;4974737;28;20077;-76
2022/05/26 13:14:59;;;;;;;1.45;0.90;;;;;;;;;;4974635;28;20025;-76
2022/05/26 13:17:27;;;;;;;6.10;0.88;;;;;;;;;;4975197;28;20514;-75
2022/05/26 13:19:59;;;;;;;3.22;1.00;;;;;;;;;;4970699;28;20027;-75
2022/05/26 13:22:25;;;;;;;5.00;0.90;;;;;;;;;;4970362;28;20019;-75
2022/05/26 13:24:56;;;;;;;2.38;0.60;;;;;;;;;;4970406;28;20026;-75
2022/05/26 13:27:23;;;;;;;5.57;0.90;;;;;;;;;;4971067;28;20404;-75
2022/05/26 13:29:51;;;;;;;2.00;0.90;;;;;;;;;;4973355;28;20029;-75
2022/05/26 13:35:14;;;;;;;3.80;1.10;;;;;;;;;;4970441;28;20029;-75
2022/05/26 13:37:42;;;;;;;2.53;1.30;;;;;;;;;;4970122;28;20500;-75
2022/05/26 13:40:11;;;;;;;3.53;0.90;;;;;;;;;;4970052;28;20033;-75
2022/05/26 13:42:39;;;;;;;1.60;0.80;;;;;;;;;;4969940;28;20516;-75
2022/05/26 13:45:08;;;;;;;5.15;1.10;;;;;;;;;;4973317;28;20033;-75
2022/05/26 13:47:35;;;;;;;2.92;0.82;;;;;;;;;;4971474;28;20508;-76
2022/05/26 13:50:03;;;;;;;7.82;1.20;;;;;;;;;;4969643;28;20030;-76
2022/05/26 13:52:30;;;;;;;2.45;0.80;;;;;;;;;;4969497;28;20052;-75
2022/05/26 13:55:07;;;;;;;1.33;0.65;;;;;;;;;;4969610;28;20027;-75
2022/05/26 13:57:38;;;;;;;3.53;1.00;;;;;;;;;;4973790;28;20381;-75
2022/05/26 14:00:06;;;;;;;3.90;0.80;;;;;;;;;;4973834;28;20496;-76
2022/05/26 14:02:34;;;;;;;4.43;1.10;;;;;;;;;;4974087;28;20033;-75
2022/05/26 14:05:04;;;;;;;3.75;1.00;;;;;;;;;;4974343;28;20034;-76
2022/05/26 14:07:33;;;;;;;2.83;0.80;;;;;;;;;;4973436;28;20037;-76
2022/05/26 14:10:01;;;;;;;3.40;0.80;;;;;;;;;;4973234;28;20084;-75
2022/05/26 14:12:28;;;;;;;3.80;0.70;;;;;;;;;;4973717;28;20448;-75
2022/05/26 14:14:55;;;;;;;1.90;0.63;;;;;;;;;;4973501;28;20022;-75
2022/05/26 14:17:35;;;;;;;3.03;0.80;;;;;;;;;;4974621;28;20030;-75
2022/05/26 14:20:04;;;;;;;1.98;0.93;;;;;;;;;;4968728;28;20027;-75
2022/05/26 14:22:31;;;;;;;1.95;0.68;;;;;;;;;;4968961;28;20031;-75
2022/05/26 14:24:58;;;;;;;2.60;0.80;;;;;;;;;;4968803;28;20023;-76
2022/05/26 14:27:27;;;;;;;3.53;0.90;;;;;;;;;;4969785;28;20493;-75
2022/05/26 14:29:55;;;;;;;3.22;0.90;;;;;;;;;;4972678;28;20492;-76
2022/05/26 14:32:30;;;;;;;6.00;0.80;;;;;;;;;;4969653;28;20031;-75
2022/05/26 14:34:58;;;;;;;1.88;0.70;;;;;;;;;;4973173;28;20030;-75
2022/05/26 14:37:26;;;;;;;2.33;0.90;;;;;;;;;;4973276;28;20018;-75
2022/05/26 14:39:53;;;;;;;3.72;0.90;;;;;;;;;;4972847;28;20419;-76
2022/05/26 14:42:30;;;;;;;2.05;0.70;;;;;;;;;;4973135;28;20035;-75
2022/05/26 14:44:58;;;;;;;2.80;0.82;;;;;;;;;;4957903;28;20069;-76
2022/05/26 14:47:24;;;;;;;4.03;0.80;;;;;;;;;;4969222;28;20039;-75
2022/05/26 14:49:50;;;;;;;2.30;0.75;;;;;;;;;;4969197;28;20080;-76
2022/05/26 14:52:19;;;;;;;2.72;0.73;;;;;;;;;;4968622;28;20034;-76
2022/05/26 14:57:31;;;;;;;14.50;1.50;;;;;;;;;;4969052;28;20037;-75
2022/05/26 14:59:58;;;;;;;4.53;0.82;;;;;;;;;;4972884;28;20019;-75
2022/05/26 15:02:24;;;;;;;7.60;0.90;;;;;;;;;;4969062;28;20033;-75
2022/05/26 15:04:51;;;;;;;4.15;1.02;;;;;;;;;;4968911;28;20027;-75
2022/05/26 15:07:20;;;;;;;6.10;1.25;;;;;;;;;;4968250;28;20026;-76
2022/05/26 15:09:47;;;;;;;10.73;1.38;;;;;;;;;;4968706;28;20019;-74
2022/05/26 15:12:14;;;;;;;1.95;0.70;;;;;;;;;;4970964;28;20562;-75
2022/05/26 15:14:40;;;;;;;4.13;0.95;;;;;;;;;;4970781;28;20072;-75
2022/05/26 15:17:12;;;;;;;2.88;0.65;;;;;;;;;;4973270;28;20488;-75
2022/05/26 15:19:50;;;;;;;1.77;0.70;;;;;;;;;;4972008;28;20023;-75
2022/05/26 15:22:16;;;;;;;2.80;0.93;;;;;;;;;;4972585;28;20035;-75
2022/05/26 15:24:44;;;;;;;6.55;0.73;;;;;;;;;;4973085;28;20031;-75
2022/05/26 15:27:12;;;;;;;3.15;0.80;;;;;;;;;;4972547;28;20442;-75
2022/05/26 15:29:38;;;;;;;6.35;0.80;;;;;;;;;;4972688;28;20025;-75
2022/05/26 15:32:07;;;;;;;2.25;0.95;;;;;;;;;;4972742;28;20407;-76
2022/05/26 15:34:34;;;;;;;4.97;0.60;;;;;;;;;;4972286;28;20022;-75
2022/05/26 15:37:04;;;;;;;2.78;0.75;;;;;;;;;;4972157;28;20027;-75
2022/05/26 15:39:30;;;;;;;4.07;1.00;;;;;;;;;;4972603;28;20023;-75
2022/05/26 15:41:57;;;;;;;4.55;0.98;;;;;;;;;;4972358;28;20065;-75
2022/05/26 15:44:23;;;;;;;5.50;1.02;;;;;;;;;;4973046;28;20052;-76